Details From MMMZ - General Rafael Buelna Intl
To MMZH - Ixtapa Zihuatanejo Intl
Flight Number -
Tags Decoded
Created
Modified
Stats Distance 473 nm / 877 km
Max Altitude 0 ft / 0 m
Waypoints 7
Social Downloads 1
Likes 0
Share VATSIM

Download

Looking for another format? Having issues loading an existing format? Contact us
Advertisement - Login to hide

Notes

Decoded

Route

MMMZ ALILI NOSOL MMZO NUGED MMLC MMZH

ID Type Via Altitude Latitude Longitude Leg Dist Tot Dist Heading (true) Name
O MMMZ APT - 0 ft / 0 m 23.16202˚ -106.27783˚ - 0 nm - -
ALILI FIX - 0 ft / 0 m 22.63297˚ -105.82740˚ 40 nm 40 nm 142° / 142° -
NOSOL FIX - 0 ft / 0 m 19.86024˚ -105.45325˚ 167 nm 208 nm 173° / 173° -
MMZO APT - 0 ft / 0 m 19.14754˚ -104.56868˚ 65 nm 274 nm 130° / 131° -
NUGED FIX - 0 ft / 0 m 18.76649˚ -103.78951˚ 49 nm 323 nm 117° / 117° -
MMLC APT - 0 ft / 0 m 17.99553˚ -102.22321˚ 100 nm 424 nm 117° / 118° LAZARO CARDENAS
O MMZH APT - 0 ft / 0 m 17.60188˚ -101.47233˚ 49 nm 473 nm 119° / 119° -

Altitude Profile

Advertisement - Login to hide

Weather


0- 5 10 15 20 25 30 35+ Temperature / ° C

Clouds and Precipitation
Forecast for 2018-05-23 18:00 UTC. Updated 2 hours ago

Ground ~20,000 ft ~40,000 ft Winds

MMMZ

Details ICAO MMMZ (MZT)
Name GENERAL RAFAEL BUELNA INTL
Region Mexico
Timezone America/Mazatlan (UTC-6.0)
Stats Elevation 38 ft / 12 m (AMSL)
Location 23.161355° -106.264697°
Runways 1
Magnetic Variation 7.297° E

METAR

MMMZ 231845Z 24011KT 14SM BKN240 29/20 A2990 RMK 8/008 HZY

Decode

TAF

TAF MMMZ 231712Z 2318/2424 26005KT P6SM SKC TX31/2320Z TN15/2412Z FM240600 33005KT P6SM SKC

Decode

Departure Runways

ID Width Length Bearing (true) Bearing (mag) Surface Threshold Offset Overrun Length
08 197 ft / 60 m 8,826 ft / 2,690 m 93.17° 85.87° Asphalt 0 ft / 0 m 175 ft / 53 m
26 197 ft / 60 m 8,826 ft / 2,690 m 273.18° 265.88° Asphalt 0 ft / 0 m 175 ft / 53 m

MMZH

Details ICAO MMZH (ZIH)
Name IXTAPA ZIHUATANEJO INTL
Region Mexico
Timezone America/Mexico_City (UTC-5.0)
Stats Elevation 26 ft / 8 m (AMSL)
Location 17.601568° -101.460535°
Runways 1
Magnetic Variation 5.566° E

METAR

MMZH 231746Z 20006KT 6SM FEW020 SCT250 32/24 A2986 RMK SLP103 54000 920 8/102 HZY

Decode

TAF

Not found

Destination Runways

ID Width Length Bearing (true) Bearing (mag) Surface Threshold Offset Overrun Length
08 197 ft / 60 m 8,207 ft / 2,502 m 91.58° 86.01° Asphalt 0 ft / 0 m 197 ft / 60 m
26 197 ft / 60 m 8,207 ft / 2,502 m 271.58° 266.01° Asphalt 0 ft / 0 m 197 ft / 60 m